Flight Track Log - Related Links

Times and Time Zones

All times are in EDT time to prevent confusion due to time zone crossing. See the SWA1004 flight status page for this flight to view local times or setup timezone preferences in your user account.

Time Position Orientation Groundspeed Altitude Reporting Facility
EDT Latitude Longitude Course Direction KTS MPH feet Rate Location/Type
Fri 08:02:41 PM 32.7839 -117.2978 296° West 227 261 3,500  Level Los Angeles Center
Fri 08:03:43 PM 32.8275 -117.3772 303° West 273 314 6,800 3,484 Climbing Los Angeles Center
Fri 08:04:45 PM 32.8714 -117.4575 303° West 287 330 10,700 3,871 Climbing Los Angeles Center
Fri 08:05:47 PM 32.9344 -117.5247 318° Northwest 303 349 14,800 3,532 Climbing Los Angeles Center
Fri 08:06:49 PM 33.0042 -117.5792 327° Northwest 300 345 18,000 3,000 Climbing Los Angeles Center
Fri 08:07:51 PM 33.0636 -117.6533 314° West 312 359 21,000 2,710 Climbing Los Angeles Center
Fri 08:08:53 PM 33.1344 -117.7622 308° West 341 392 23,600 2,226 Climbing Los Angeles Center
Fri 08:09:55 PM 33.1933 -117.8658 304° West 370 426 25,600 1,920 Climbing Los Angeles Center
Fri 08:10:58 PM 33.2553 -117.9725 305° West 388 447 27,600 1,920 Climbing Los Angeles Center
Fri 08:12:00 PM 33.3342 -118.0569 318° Northwest 389 448 29,600 1,887 Climbing Los Angeles Center
Fri 08:13:02 PM 33.4325 -118.0872 346° North 370 426 31,500 1,887 Climbing Los Angeles Center
Fri 08:14:04 PM 33.5292 -118.1194 344° North 362 417 33,500 2,032 Climbing Los Angeles Center
Fri 08:15:06 PM 33.6397 -118.1547 345° North 348 400 35,700 1,452 Climbing Los Angeles Center
Fri 08:16:08 PM 33.7311 -118.1842 345° North 345 397 36,500 726 Climbing Los Angeles Center
Fri 08:17:10 PM 33.8281 -118.2172 344° North 368 423 37,200 726 Climbing Los Angeles Center
Fri 08:18:12 PM 33.9258 -118.2506 344° North 371 427 38,000 387 Climbing Los Angeles Center
Fri 08:19:14 PM 34.0433 -118.2903 344° North 369 425 38,000  Level Los Angeles Center
Fri 08:20:16 PM 34.1414 -118.3228 345° North 367 422 38,000  Level Los Angeles Center
Fri 08:21:18 PM 34.2403 -118.3561 344° North 370 426 38,000  Level Los Angeles Center
Fri 08:22:21 PM 34.3383 -118.3889 345° North 366 421 38,000  Level Los Angeles Center
Fri 08:23:23 PM 34.4372 -118.4228 344° North 369 425 38,000  Level Los Angeles Center
Fri 08:24:25 PM 34.5553 -118.4628 344° North 368 423 38,000  Level Los Angeles Center
Fri 08:25:27 PM 34.6539 -118.4964 344° North 368 423 38,000  Level Los Angeles Center
Fri 08:26:29 PM 34.7519 -118.5303 344° North 368 423 38,000  Level Los Angeles Center
Fri 08:27:31 PM 34.8511 -118.5636 345° North 368 423 38,000  Level Los Angeles Center
Fri 08:28:33 PM 34.9439 -118.5947 345° North 370 426 38,000  Level Los Angeles Center
Fri 08:29:35 PM 35.0642 -118.6297 347° North 369 425 38,000  Level Los Angeles Center
Fri 08:30:37 PM 35.1678 -118.6514 350° North 375 432 38,000  Level Los Angeles Center
Fri 08:31:39 PM 35.2692 -118.6736 350° North 370 426 38,000  Level Los Angeles Center
Fri 08:32:41 PM 35.3725 -118.6953 350° North 374 430 38,000  Level Los Angeles Center
Fri 08:33:43 PM 35.4736 -118.7181 350° North 371 427 38,000  Level Los Angeles Center
Fri 08:34:46 PM 35.5758 -118.7411 350° North 371 427 38,000  Level Los Angeles Center
Fri 08:35:48 PM 35.6981 -118.7683 350° North 373 429 38,000  Level Los Angeles Center
Fri 08:36:38 PM 35.7653 -118.7808 351° North 376 433 38,000  Level Oakland Center
Fri 08:37:40 PM 35.8867 -118.8075 350° North 374 430 38,000  Level Oakland Center
Fri 08:38:41 PM 35.9886 -118.8303 350° North 373 429 38,000  Level Oakland Center
Fri 08:39:42 PM 36.0922 -118.8536 350° North 382 440 38,000  Level Oakland Center
Fri 08:40:44 PM 36.1931 -118.8756 350° North 374 430 38,000  Level Oakland Center
Fri 08:41:45 PM 36.3042 -118.8983 351° North 375 432 38,000  Level Oakland Center
Fri 08:42:46 PM 36.4108 -118.9228 350° North 369 425 38,000  Level Oakland Center
Fri 08:43:48 PM 36.5081 -118.9450 350° North 365 420 38,000 -244 Level Oakland Center
Fri 08:44:49 PM 36.6153 -118.9689 350° North 370 426 37,500 -689 Descending Oakland Center
Fri 08:45:50 PM 36.7147 -118.9928 349° North 374 430 36,600 -927 Descending Oakland Center
Fri 08:46:52 PM 36.8222 -119.0181 349° North 374 430 35,600 -976 Descending Oakland Center
Fri 08:47:53 PM 36.9242 -119.0419 349° North 382 440 34,600 -984 Descending Oakland Center
Fri 08:48:54 PM 37.0347 -119.0664 350° North 382 440 33,600 -976 Descending Oakland Center
Fri 08:49:56 PM 37.1467 -119.0953 348° North 406 467 32,600 -976 Descending Oakland Center
Fri 08:50:57 PM 37.2514 -119.1186 350° North 404 465 31,600 -1,033 Descending Oakland Center
Fri 08:51:58 PM 37.3644 -119.1403 351° North 403 464 30,500 -780 Descending Oakland Center
Fri 08:53:00 PM 37.4689 -119.1675 348° North 402 463 30,000 -390 Descending Oakland Center
Fri 08:54:01 PM 37.5833 -119.1986 348° North 415 478 29,700 -590 Descending Oakland Center
Fri 08:55:02 PM 37.6800 -119.2153 352° North 399 459 28,800 -927 Descending Oakland Center
Fri 08:56:04 PM 37.7803 -119.2378 350° North 394 453 27,800 -976 Descending Oakland Center
Fri 08:57:05 PM 37.8822 -119.2617 350° North 375 432 26,800 -984 Descending Oakland Center
Fri 08:58:06 PM 37.9833 -119.2850 350° North 370 426 25,800 -1,073 Descending Oakland Center
Fri 08:59:08 PM 38.1033 -119.3133 349° North 367 422 24,600 -1,073 Descending Oakland Center
Fri 09:00:09 PM 38.2019 -119.3358 350° North 363 418 23,600 -1,033 Descending Oakland Center
Fri 09:01:10 PM 38.3006 -119.3589 350° North 361 415 22,500 -780 Descending Oakland Center
Fri 09:02:12 PM 38.3967 -119.3828 349° North 355 409 22,000 -244 Descending Oakland Center
Fri 09:03:13 PM 38.4919 -119.4042 350° North 350 403 22,000 -492 Level Oakland Center
Fri 09:04:14 PM 38.5872 -119.4272 349° North 348 400 21,000 -976 Descending Oakland Center
Fri 09:05:16 PM 38.6836 -119.4500 350° North 350 403 20,000 -976 Descending Oakland Center
Fri 09:06:17 PM 38.7806 -119.4742 349° North 352 405 19,000 -1,033 Descending Oakland Center
Fri 09:07:18 PM 38.8758 -119.4969 349° North 350 403 17,900 -1,279 Descending Oakland Center
Fri 09:08:19 PM 38.9700 -119.5192 350° North 346 398 16,400 -1,171 Descending Oakland Center
Fri 09:09:21 PM 39.0806 -119.5461 349° North 338 389 15,500 -927 Descending Oakland Center
Fri 09:10:22 PM 39.1794 -119.5692 350° North 351 404 14,500 -984 Descending Oakland Center
Fri 09:11:23 PM 39.2811 -119.5953 349° North 366 421 13,500 -1,024 Descending Oakland Center
Fri 09:12:25 PM 39.3806 -119.6189 350° North 364 419 12,400 -1,056 Descending Oakland Center
Fri 09:13:11 PM 39.4500 -119.6333 351° North 329 379 11,600 -962 Descending Northern Cal TRACON
Fri 09:14:11 PM 39.5333 -119.6500 351° North 283 326 10,700 -1,850 Descending Northern Cal TRACON
Fri 09:15:11 PM 39.6000 -119.6833 339° North 254 292 7,900 -1,800 Descending Northern Cal TRACON
Fri 09:16:11 PM 39.6000 -119.7500 270° West 202 232 7,100 -1,100 Descending Northern Cal TRACON
Fri 09:17:11 PM 39.5667 -119.7667 201° Southwest 162 186 5,700 -1,400 Descending Northern Cal TRACON
Fri 09:19:00 PM 39.4991 -119.7681 237° Southwest  Level Estimated
Fri 09:26:00 PM 39.4991 -119.7681 237° Southwest  Level Estimated

Login

Don't have an account? Register now (free) for customized features, flight alerts, and more!